Time;durP1;ratioP1;P1;durP2;ratioP2;P2;SDS_P1;SDS_P2;PMS_P1;PMS_P2;Temp;Humidity;BMP_temperature;BMP_pressure;BME280_temperature;BME280_humidity;BME280_pressure;Samples;Min_cycle;Max_cycle;Signal;HPM_P1;HPM_P2
2023/09/09 00:00:16;;;;;;;;;;;;;;;;;;2071145;28;19914;-74
2023/09/09 00:01:37;;;;;;;;;;;;;;;;;;2071563;28;19972;-74
2023/09/09 00:02:57;;;;;;;;;;;;;;;;;;2060971;28;20290;-74
2023/09/09 00:04:18;;;;;;;;;;;;;;;;;;2069215;28;20146;-74
2023/09/09 00:05:39;;;;;;;;;;;;;;;;;;2065161;28;19917;-74
2023/09/09 00:07:02;;;;;;;;;;;;;;;;;;2065715;28;19918;-75
2023/09/09 00:08:24;;;;;;;;;;;;;;;;;;2066659;28;19918;-74
2023/09/09 00:09:44;;;;;;;;;;;;;;;;;;2063409;28;19922;-74
2023/09/09 00:11:05;;;;;;;;;;;;;;;;;;2069271;28;19921;-77
2023/09/09 00:12:26;;;;;;;;;;;;;;;;;;2070339;28;19914;-77
2023/09/09 00:13:47;;;;;;;;;;;;;;;;;;2062934;28;20278;-76
2023/09/09 00:15:07;;;;;;;;;;;;;;;;;;2073032;28;19914;-77
2023/09/09 00:16:28;;;;;;;;;;;;;;;;;;2071600;28;20021;-78
2023/09/09 00:17:49;;;;;;;;;;;;;;;;;;2061629;28;19972;-76
2023/09/09 00:19:09;;;;;;;;;;;;;;;;;;2071279;28;20431;-77
2023/09/09 00:20:30;;;;;;;;;;;;;;;;;;2072972;28;19921;-77
2023/09/09 00:21:51;;;;;;;;;;;;;;;;;;2064929;28;19914;-77
2023/09/09 00:23:12;;;;;;;;;;;;;;;;;;2063957;28;20440;-76
2023/09/09 00:24:33;;;;;;;;;;;;;;;;;;2070910;28;19922;-77
2023/09/09 00:25:54;;;;;;;;;;;;;;;;;;2072869;28;19918;-76
2023/09/09 00:27:15;;;;;;;;;;;;;;;;;;2062682;28;19914;-77
2023/09/09 00:28:35;;;;;;;;;;;;;;;;;;2062578;28;19917;-77
2023/09/09 00:29:56;;;;;;;;;;;;;;;;;;2067893;28;20365;-77
2023/09/09 00:31:17;;;;;;;;;;;;;;;;;;2057208;28;19973;-77
2023/09/09 00:32:37;;;;;;;;;;;;;;;;;;2068251;28;20281;-77
2023/09/09 00:33:58;;;;;;;;;;;;;;;;;;2064377;28;19921;-77
2023/09/09 00:35:19;;;;;;;;;;;;;;;;;;2068376;28;19922;-76
2023/09/09 00:36:39;;;;;;;;;;;;;;;;;;2067746;28;20274;-77
2023/09/09 00:38:00;;;;;;;;;;;;;;;;;;2071489;28;19926;-77
2023/09/09 00:39:21;;;;;;;;;;;;;;;;;;2071136;28;19968;-76
2023/09/09 00:40:42;;;;;;;;;;;;;;;;;;2071961;28;19997;-78
2023/09/09 00:42:02;;;;;;;;;;;;;;;;;;2060458;28;19922;-78
2023/09/09 00:43:23;;;;;;;;;;;;;;;;;;2064146;28;19914;-77
2023/09/09 00:44:44;;;;;;;;;;;;;;;;;;2068092;28;19913;-76
2023/09/09 00:46:04;;;;;;;;;;;;;;;;;;2061628;28;20395;-77
2023/09/09 00:47:25;;;;;;;;;;;;;;;;;;2069320;28;19914;-77
2023/09/09 00:48:46;;;;;;;;;;;;;;;;;;2062330;28;19925;-78
2023/09/09 00:50:10;;;;;;;;;;;;;;;;;;2068934;28;20285;-76
2023/09/09 00:51:30;;;;;;;;;;;;;;;;;;2063405;28;19914;-77
2023/09/09 00:52:51;;;;;;;;;;;;;;;;;;2067576;28;19922;-75
2023/09/09 00:54:12;;;;;;;;;;;;;;;;;;2061642;28;19964;-75
2023/09/09 00:55:39;;;;;;;;;;;;;;;;;;2064226;28;19917;-78
2023/09/09 00:57:00;;;;;;;;;;;;;;;;;;2070720;28;19973;-76
2023/09/09 00:58:21;;;;;;;;;;;;;;;;;;2063802;28;19914;-76
2023/09/09 00:59:42;;;;;;;;;;;;;;;;;;2069994;28;19910;-77
2023/09/09 01:01:03;;;;;;;;;;;;;;;;;;2062712;28;19914;-76
2023/09/09 01:02:24;;;;;;;;;;;;;;;;;;2070101;28;19914;-77
2023/09/09 01:03:44;;;;;;;;;;;;;;;;;;2065907;28;19922;-75
2023/09/09 01:05:05;;;;;;;;;;;;;;;;;;2068799;28;19914;-76
2023/09/09 01:06:26;;;;;;;;;;;;;;;;;;2063577;28;19913;-77
2023/09/09 01:07:47;;;;;;;;;;;;;;;;;;2067812;28;19913;-75
2023/09/09 01:09:08;;;;;;;;;;;;;;;;;;2066785;28;19921;-77
2023/09/09 01:10:29;;;;;;;;;;;;;;;;;;2068548;28;19917;-74
2023/09/09 01:11:50;;;;;;;;;;;;;;;;;;2069315;28;19933;-76
2023/09/09 01:13:10;;;;;;;;;;;;;;;;;;2062369;28;20392;-76
2023/09/09 01:14:31;;;;;;;;;;;;;;;;;;2068391;28;19968;-77
2023/09/09 01:15:52;;;;;;;;;;;;;;;;;;2070616;28;20439;-76
2023/09/09 01:17:12;;;;;;;;;;;;;;;;;;2069360;28;19967;-77
2023/09/09 01:18:34;;;;;;;;;;;;;;;;;;2072331;28;19928;-77
2023/09/09 01:19:55;;;;;;;;;;;;;;;;;;2063610;28;19918;-77
2023/09/09 01:21:16;;;;;;;;;;;;;;;;;;2060850;28;20283;-72
2023/09/09 01:22:37;;;;;;;;;;;;;;;;;;2068851;28;19914;-72
2023/09/09 01:23:57;;;;;;;;;;;;;;;;;;2060346;28;19913;-71
2023/09/09 01:25:18;;;;;;;;;;;;;;;;;;2060318;28;20484;-71
2023/09/09 01:26:39;;;;;;;;;;;;;;;;;;2064863;28;19972;-74
2023/09/09 01:27:59;;;;;;;;;;;;;;;;;;2061369;28;20171;-73
2023/09/09 01:29:20;;;;;;;;;;;;;;;;;;2066005;28;20381;-72
2023/09/09 01:30:42;;;;;;;;;;;;;;;;;;2071302;28;19913;-71
2023/09/09 01:32:02;;;;;;;;;;;;;;;;;;2071457;28;20320;-71
2023/09/09 01:33:23;;;;;;;;;;;;;;;;;;2069173;28;19913;-73
2023/09/09 01:34:44;;;;;;;;;;;;;;;;;;2070430;28;19917;-70
2023/09/09 01:36:05;;;;;;;;;;;;;;;;;;2061576;28;19914;-69
2023/09/09 01:37:25;;;;;;;;;;;;;;;;;;2069790;28;20435;-69
2023/09/09 01:38:46;;;;;;;;;;;;;;;;;;2072579;28;20561;-70
2023/09/09 01:40:10;;;;;;;;;;;;;;;;;;2066468;28;20281;-69
2023/09/09 01:41:31;;;;;;;;;;;;;;;;;;2065284;28;19921;-70
2023/09/09 01:42:51;;;;;;;;;;;;;;;;;;2066768;28;19936;-71
2023/09/09 01:44:12;;;;;;;;;;;;;;;;;;2065294;28;20277;-70
2023/09/09 01:45:33;;;;;;;;;;;;;;;;;;2059418;28;19922;-69
2023/09/09 01:46:54;;;;;;;;;;;;;;;;;;2061998;28;19914;-69
2023/09/09 01:48:14;;;;;;;;;;;;;;;;;;2056161;28;20345;-69
2023/09/09 01:49:35;;;;;;;;;;;;;;;;;;2056959;28;19922;-69
2023/09/09 01:50:56;;;;;;;;;;;;;;;;;;2069238;28;19913;-70
2023/09/09 01:52:16;;;;;;;;;;;;;;;;;;2072709;28;20385;-69
2023/09/09 01:53:38;;;;;;;;;;;;;;;;;;2072755;28;19925;-69
2023/09/09 01:54:59;;;;;;;;;;;;;;;;;;2070435;28;19986;-70
2023/09/09 01:56:19;;;;;;;;;;;;;;;;;;2070806;28;19924;-70
2023/09/09 01:57:40;;;;;;;;;;;;;;;;;;2061578;28;20368;-70
2023/09/09 01:59:01;;;;;;;;;;;;;;;;;;2065449;28;19921;-69
2023/09/09 02:00:22;;;;;;;;;;;;;;;;;;2062418;28;19913;-69
2023/09/09 02:01:42;;;;;;;;;;;;;;;;;;2062975;28;19931;-72
2023/09/09 02:03:03;;;;;;;;;;;;;;;;;;2070058;28;19993;-70
2023/09/09 02:04:24;;;;;;;;;;;;;;;;;;2070637;28;19913;-68
2023/09/09 02:05:44;;;;;;;;;;;;;;;;;;2071217;28;19995;-70
2023/09/09 02:07:05;;;;;;;;;;;;;;;;;;2071829;28;19920;-69
2023/09/09 02:08:26;;;;;;;;;;;;;;;;;;2063664;28;19914;-69
2023/09/09 02:09:47;;;;;;;;;;;;;;;;;;2062919;28;19933;-70
2023/09/09 02:11:07;;;;;;;;;;;;;;;;;;2067951;28;19918;-69
2023/09/09 02:12:29;;;;;;;;;;;;;;;;;;2070314;28;19917;-72
2023/09/09 02:13:50;;;;;;;;;;;;;;;;;;2073767;28;19914;-70
2023/09/09 02:15:13;;;;;;;;;;;;;;;;;;2061166;28;19921;-70
2023/09/09 02:16:33;;;;;;;;;;;;;;;;;;2068848;28;19940;-69
2023/09/09 02:17:54;;;;;;;;;;;;;;;;;;2069747;28;19917;-69
2023/09/09 02:19:15;;;;;;;;;;;;;;;;;;2069795;28;20392;-70
2023/09/09 02:20:35;;;;;;;;;;;;;;;;;;2070389;28;19933;-71
2023/09/09 02:21:56;;;;;;;;;;;;;;;;;;2072469;28;19921;-70
2023/09/09 02:23:17;;;;;;;;;;;;;;;;;;2072820;28;19936;-70
2023/09/09 02:24:38;;;;;;;;;;;;;;;;;;2069650;28;20312;-70
2023/09/09 02:25:59;;;;;;;;;;;;;;;;;;2072808;28;19993;-70
2023/09/09 02:27:19;;;;;;;;;;;;;;;;;;2062853;28;19984;-70
2023/09/09 02:28:40;;;;;;;;;;;;;;;;;;2060644;28;20369;-71
2023/09/09 02:30:01;;;;;;;;;;;;;;;;;;2066140;28;19909;-69
2023/09/09 02:31:22;;;;;;;;;;;;;;;;;;2068771;28;19937;-72
2023/09/09 02:32:43;;;;;;;;;;;;;;;;;;2070531;28;19941;-72
2023/09/09 02:34:04;;;;;;;;;;;;;;;;;;2069016;28;19993;-72
2023/09/09 02:35:25;;;;;;;;;;;;;;;;;;2061982;28;19918;-72
2023/09/09 02:36:46;;;;;;;;;;;;;;;;;;2063242;28;20412;-72
2023/09/09 02:38:06;;;;;;;;;;;;;;;;;;2067729;28;19929;-73
2023/09/09 02:39:27;;;;;;;;;;;;;;;;;;2068467;28;19934;-74
2023/09/09 02:40:48;;;;;;;;;;;;;;;;;;2071986;28;20250;-74
2023/09/09 02:42:09;;;;;;;;;;;;;;;;;;2061834;28;19968;-74
2023/09/09 02:43:30;;;;;;;;;;;;;;;;;;2063374;28;20010;-74
2023/09/09 02:44:50;;;;;;;;;;;;;;;;;;2067061;28;20381;-74
2023/09/09 02:46:11;;;;;;;;;;;;;;;;;;2061833;28;21244;-74
2023/09/09 02:47:32;;;;;;;;;;;;;;;;;;2066539;28;19917;-73
2023/09/09 02:48:53;;;;;;;;;;;;;;;;;;2070081;28;19936;-73
2023/09/09 02:50:13;;;;;;;;;;;;;;;;;;2060865;28;19925;-74
2023/09/09 02:51:34;;;;;;;;;;;;;;;;;;2063499;28;19913;-74
2023/09/09 02:52:55;;;;;;;;;;;;;;;;;;2068163;28;20300;-73
2023/09/09 02:54:16;;;;;;;;;;;;;;;;;;2068550;28;20380;-74
2023/09/09 02:55:36;;;;;;;;;;;;;;;;;;2059963;28;20370;-74
2023/09/09 02:56:57;;;;;;;;;;;;;;;;;;2064004;28;19914;-74
2023/09/09 02:58:18;;;;;;;;;;;;;;;;;;2060553;28;19913;-73
2023/09/09 02:59:39;;;;;;;;;;;;;;;;;;2066748;28;19921;-73
2023/09/09 03:00:59;;;;;;;;;;;;;;;;;;2069672;28;19918;-73
2023/09/09 03:02:20;;;;;;;;;;;;;;;;;;2070576;28;20491;-73
2023/09/09 03:03:41;;;;;;;;;;;;;;;;;;2070137;28;19913;-73
2023/09/09 03:05:03;;;;;;;;;;;;;;;;;;2068172;28;19995;-73
2023/09/09 03:06:23;;;;;;;;;;;;;;;;;;2068495;28;19921;-72
2023/09/09 03:07:45;;;;;;;;;;;;;;;;;;2065392;28;19943;-73
2023/09/09 03:09:06;;;;;;;;;;;;;;;;;;2065043;28;19918;-73
2023/09/09 03:10:27;;;;;;;;;;;;;;;;;;2068666;28;20373;-73
2023/09/09 03:11:48;;;;;;;;;;;;;;;;;;2071443;28;19925;-73
2023/09/09 03:13:08;;;;;;;;;;;;;;;;;;2071599;28;19913;-73
2023/09/09 03:14:29;;;;;;;;;;;;;;;;;;2070801;28;19917;-73
2023/09/09 03:15:50;;;;;;;;;;;;;;;;;;2069583;28;19917;-73
2023/09/09 03:17:10;;;;;;;;;;;;;;;;;;2063964;28;20501;-73
2023/09/09 03:18:31;;;;;;;;;;;;;;;;;;2065083;28;20329;-73
2023/09/09 03:19:52;;;;;;;;;;;;;;;;;;2064448;28;21171;-73
2023/09/09 03:21:12;;;;;;;;;;;;;;;;;;2064804;28;19913;-73
2023/09/09 03:22:33;;;;;;;;;;;;;;;;;;2066990;28;20289;-73
2023/09/09 03:23:54;;;;;;;;;;;;;;;;;;2064068;28;19914;-73
2023/09/09 03:25:14;;;;;;;;;;;;;;;;;;2070192;28;19914;-73
2023/09/09 03:26:35;;;;;;;;;;;;;;;;;;2064828;28;20345;-72
2023/09/09 03:27:56;;;;;;;;;;;;;;;;;;2069475;28;19914;-73
2023/09/09 03:29:17;;;;;;;;;;;;;;;;;;2069596;28;19917;-73
2023/09/09 03:30:37;;;;;;;;;;;;;;;;;;2072102;28;19921;-73
2023/09/09 03:31:58;;;;;;;;;;;;;;;;;;2070010;28;19945;-73
2023/09/09 03:33:19;;;;;;;;;;;;;;;;;;2071647;28;19921;-72
2023/09/09 03:34:40;;;;;;;;;;;;;;;;;;2072047;28;19913;-73
2023/09/09 03:36:01;;;;;;;;;;;;;;;;;;2072068;28;19921;-73
2023/09/09 03:37:22;;;;;;;;;;;;;;;;;;2064321;28;19925;-73
2023/09/09 03:38:42;;;;;;;;;;;;;;;;;;2066148;28;19914;-72
2023/09/09 03:40:04;;;;;;;;;;;;;;;;;;2063527;28;19922;-73
2023/09/09 03:41:26;;;;;;;;;;;;;;;;;;2070277;28;19987;-74
2023/09/09 03:42:46;;;;;;;;;;;;;;;;;;2067456;28;19921;-75
2023/09/09 03:44:07;;;;;;;;;;;;;;;;;;2067337;28;19959;-73
2023/09/09 03:45:28;;;;;;;;;;;;;;;;;;2066241;28;19925;-74
2023/09/09 03:46:48;;;;;;;;;;;;;;;;;;2067221;28;19921;-75
2023/09/09 03:48:09;;;;;;;;;;;;;;;;;;2067143;28;19983;-75
2023/09/09 03:49:30;;;;;;;;;;;;;;;;;;2066934;28;19925;-74
2023/09/09 03:50:51;;;;;;;;;;;;;;;;;;2066239;28;19945;-74
2023/09/09 03:52:12;;;;;;;;;;;;;;;;;;2063492;28;19984;-75
2023/09/09 03:53:32;;;;;;;;;;;;;;;;;;2069189;28;19909;-75
2023/09/09 03:54:53;;;;;;;;;;;;;;;;;;2062268;28;19976;-75
2023/09/09 03:56:14;;;;;;;;;;;;;;;;;;2063540;28;20376;-75
2023/09/09 03:57:34;;;;;;;;;;;;;;;;;;2063253;28;20010;-76
2023/09/09 03:58:55;;;;;;;;;;;;;;;;;;2071320;28;20000;-74
2023/09/09 04:00:16;;;;;;;;;;;;;;;;;;2062356;28;19929;-76
2023/09/09 04:01:37;;;;;;;;;;;;;;;;;;2067307;28;20152;-76
2023/09/09 04:02:57;;;;;;;;;;;;;;;;;;2063413;28;19926;-77
2023/09/09 04:04:18;;;;;;;;;;;;;;;;;;2059939;28;19992;-76
2023/09/09 04:05:39;;;;;;;;;;;;;;;;;;2069615;28;19922;-77
2023/09/09 04:06:59;;;;;;;;;;;;;;;;;;2071707;28;19918;-75
2023/09/09 04:08:20;;;;;;;;;;;;;;;;;;2072345;28;19979;-74
2023/09/09 04:09:41;;;;;;;;;;;;;;;;;;2069164;28;19921;-76
2023/09/09 04:11:03;;;;;;;;;;;;;;;;;;2061984;28;19914;-76
2023/09/09 04:12:23;;;;;;;;;;;;;;;;;;2068151;28;19960;-74
2023/09/09 04:13:44;;;;;;;;;;;;;;;;;;2063278;28;19929;-76
2023/09/09 04:15:05;;;;;;;;;;;;;;;;;;2068570;28;19960;-76
2023/09/09 04:16:25;;;;;;;;;;;;;;;;;;2063136;28;20037;-77
2023/09/09 04:17:46;;;;;;;;;;;;;;;;;;2060103;28;19929;-76
2023/09/09 04:19:07;;;;;;;;;;;;;;;;;;2066801;28;19976;-75
2023/09/09 04:20:28;;;;;;;;;;;;;;;;;;2069357;28;19926;-75
2023/09/09 04:21:51;;;;;;;;;;;;;;;;;;2071361;28;20400;-75
2023/09/09 04:23:12;;;;;;;;;;;;;;;;;;2070438;28;19917;-74
2023/09/09 04:24:32;;;;;;;;;;;;;;;;;;2062910;28;19968;-75
2023/09/09 04:25:53;;;;;;;;;;;;;;;;;;2069366;28;19948;-76
2023/09/09 04:27:14;;;;;;;;;;;;;;;;;;2064254;28;19956;-75
2023/09/09 04:28:34;;;;;;;;;;;;;;;;;;2068487;28;19913;-76
2023/09/09 04:29:55;;;;;;;;;;;;;;;;;;2068721;28;19933;-76
2023/09/09 04:31:16;;;;;;;;;;;;;;;;;;2062694;28;19914;-75
2023/09/09 04:32:37;;;;;;;;;;;;;;;;;;2069241;28;20305;-76
2023/09/09 04:34:00;;;;;;;;;;;;;;;;;;2071039;28;19913;-76
2023/09/09 04:35:21;;;;;;;;;;;;;;;;;;2071021;28;20561;-76
2023/09/09 04:36:45;;;;;;;;;;;;;;;;;;2063936;28;20015;-73
2023/09/09 04:38:06;;;;;;;;;;;;;;;;;;2067989;28;19921;-75
2023/09/09 04:39:27;;;;;;;;;;;;;;;;;;2070521;28;19918;-75
2023/09/09 04:40:47;;;;;;;;;;;;;;;;;;2071232;28;19975;-75
2023/09/09 04:42:08;;;;;;;;;;;;;;;;;;2071830;28;19914;-75
2023/09/09 04:43:29;;;;;;;;;;;;;;;;;;2064871;28;19937;-76
2023/09/09 04:44:50;;;;;;;;;;;;;;;;;;2058668;28;19986;-75
2023/09/09 04:46:10;;;;;;;;;;;;;;;;;;2065944;28;19972;-76
2023/09/09 04:47:31;;;;;;;;;;;;;;;;;;2069107;28;19914;-74
2023/09/09 04:48:52;;;;;;;;;;;;;;;;;;2076663;28;19918;-76
2023/09/09 04:50:13;;;;;;;;;;;;;;;;;;2069751;28;20344;-76
2023/09/09 04:51:33;;;;;;;;;;;;;;;;;;2069054;28;19913;-73
2023/09/09 04:52:54;;;;;;;;;;;;;;;;;;2068044;28;20011;-73
2023/09/09 04:54:15;;;;;;;;;;;;;;;;;;2069714;28;19995;-73
2023/09/09 04:55:35;;;;;;;;;;;;;;;;;;2070263;28;20554;-73
2023/09/09 04:56:56;;;;;;;;;;;;;;;;;;2068399;28;19922;-73
2023/09/09 04:58:17;;;;;;;;;;;;;;;;;;2070925;28;19913;-73
2023/09/09 04:59:38;;;;;;;;;;;;;;;;;;2060800;28;19929;-73
2023/09/09 05:00:59;;;;;;;;;;;;;;;;;;2067076;28;19930;-73
2023/09/09 05:02:19;;;;;;;;;;;;;;;;;;2068449;28;19918;-73
2023/09/09 05:03:40;;;;;;;;;;;;;;;;;;2071539;28;19968;-73
2023/09/09 05:05:04;;;;;;;;;;;;;;;;;;2060529;28;19917;-73
2023/09/09 05:06:24;;;;;;;;;;;;;;;;;;2061602;28;19976;-74
2023/09/09 05:07:45;;;;;;;;;;;;;;;;;;2067497;28;19932;-73
2023/09/09 05:09:06;;;;;;;;;;;;;;;;;;2070400;28;20008;-73
2023/09/09 05:10:27;;;;;;;;;;;;;;;;;;2065163;28;19934;-73
2023/09/09 05:11:47;;;;;;;;;;;;;;;;;;2067921;28;20436;-73
2023/09/09 05:13:08;;;;;;;;;;;;;;;;;;2061255;28;20340;-73
2023/09/09 05:14:29;;;;;;;;;;;;;;;;;;2055622;28;19961;-73
2023/09/09 05:15:50;;;;;;;;;;;;;;;;;;2062499;28;19918;-73
2023/09/09 05:17:10;;;;;;;;;;;;;;;;;;2062100;28;19922;-73
2023/09/09 05:18:31;;;;;;;;;;;;;;;;;;2066990;28;19914;-73
2023/09/09 05:19:52;;;;;;;;;;;;;;;;;;2059043;28;20366;-73
2023/09/09 05:21:12;;;;;;;;;;;;;;;;;;2066401;28;20325;-73
2023/09/09 05:22:33;;;;;;;;;;;;;;;;;;2061909;28;19984;-73
2023/09/09 05:23:54;;;;;;;;;;;;;;;;;;2069597;28;20376;-73
2023/09/09 05:25:14;;;;;;;;;;;;;;;;;;2068049;28;19968;-73
2023/09/09 05:26:35;;;;;;;;;;;;;;;;;;2063913;28;19913;-73
2023/09/09 05:27:56;;;;;;;;;;;;;;;;;;2061828;28;19922;-73
2023/09/09 05:29:17;;;;;;;;;;;;;;;;;;2065031;28;19918;-73
2023/09/09 05:30:37;;;;;;;;;;;;;;;;;;2062370;28;19922;-73
2023/09/09 05:31:58;;;;;;;;;;;;;;;;;;2061145;28;19921;-72
2023/09/09 05:33:19;;;;;;;;;;;;;;;;;;2062973;28;19952;-73
2023/09/09 05:34:40;;;;;;;;;;;;;;;;;;2061945;28;19951;-73
2023/09/09 05:36:00;;;;;;;;;;;;;;;;;;2062840;28;19917;-73
2023/09/09 05:37:21;;;;;;;;;;;;;;;;;;2062708;28;19921;-73
2023/09/09 05:38:42;;;;;;;;;;;;;;;;;;2065759;28;19918;-73
2023/09/09 05:40:02;;;;;;;;;;;;;;;;;;2064196;28;19975;-73
2023/09/09 05:41:23;;;;;;;;;;;;;;;;;;2070615;28;19941;-72
2023/09/09 05:42:44;;;;;;;;;;;;;;;;;;2070750;28;19913;-72
2023/09/09 05:44:04;;;;;;;;;;;;;;;;;;2063258;28;19914;-72
2023/09/09 05:45:25;;;;;;;;;;;;;;;;;;2067456;28;20289;-72
2023/09/09 05:46:46;;;;;;;;;;;;;;;;;;2063773;28;19913;-72
2023/09/09 05:48:07;;;;;;;;;;;;;;;;;;2067578;28;19914;-72
2023/09/09 05:49:28;;;;;;;;;;;;;;;;;;2059544;28;19985;-72
2023/09/09 05:50:49;;;;;;;;;;;;;;;;;;2062190;28;19981;-72
2023/09/09 05:52:11;;;;;;;;;;;;;;;;;;2068188;28;20007;-72
2023/09/09 05:53:32;;;;;;;;;;;;;;;;;;2073893;28;19993;-72
2023/09/09 05:54:53;;;;;;;;;;;;;;;;;;2068390;28;20385;-72
2023/09/09 05:56:13;;;;;;;;;;;;;;;;;;2062330;28;19914;-72
2023/09/09 05:57:34;;;;;;;;;;;;;;;;;;2068737;28;19921;-73
2023/09/09 05:58:55;;;;;;;;;;;;;;;;;;2068722;28;19921;-73
2023/09/09 06:00:15;;;;;;;;;;;;;;;;;;2060576;28;19969;-73
2023/09/09 06:01:36;;;;;;;;;;;;;;;;;;2062444;28;20175;-73
2023/09/09 06:02:57;;;;;;;;;;;;;;;;;;2070332;28;20280;-73
2023/09/09 06:04:17;;;;;;;;;;;;;;;;;;2072595;28;19933;-73
2023/09/09 06:05:38;;;;;;;;;;;;;;;;;;2072450;28;19925;-73
2023/09/09 06:06:59;;;;;;;;;;;;;;;;;;2071756;28;20397;-72
2023/09/09 06:08:20;;;;;;;;;;;;;;;;;;2073047;28;19909;-72
2023/09/09 06:09:40;;;;;;;;;;;;;;;;;;2071988;28;19917;-72
2023/09/09 06:11:01;;;;;;;;;;;;;;;;;;2069768;28;19921;-72
2023/09/09 06:12:22;;;;;;;;;;;;;;;;;;2071266;28;19914;-73
2023/09/09 06:13:42;;;;;;;;;;;;;;;;;;2072445;28;19928;-73
2023/09/09 06:15:03;;;;;;;;;;;;;;;;;;2071379;28;19913;-73
2023/09/09 06:16:24;;;;;;;;;;;;;;;;;;2071118;28;19917;-73
2023/09/09 06:17:45;;;;;;;;;;;;;;;;;;2064293;28;19910;-74
2023/09/09 06:19:06;;;;;;;;;;;;;;;;;;2065337;28;19909;-74
2023/09/09 06:20:26;;;;;;;;;;;;;;;;;;2068408;28;19932;-73
2023/09/09 06:21:48;;;;;;;;;;;;;;;;;;2070921;28;19909;-73
2023/09/09 06:23:08;;;;;;;;;;;;;;;;;;2071417;28;19978;-73
2023/09/09 06:24:29;;;;;;;;;;;;;;;;;;2064261;28;19910;-73
2023/09/09 06:25:50;;;;;;;;;;;;;;;;;;2070387;28;19910;-73
2023/09/09 06:27:10;;;;;;;;;;;;;;;;;;2071716;28;19917;-73
2023/09/09 06:28:31;;;;;;;;;;;;;;;;;;2071918;28;19910;-73
2023/09/09 06:29:52;;;;;;;;;;;;;;;;;;2069362;28;19940;-73
2023/09/09 06:31:12;;;;;;;;;;;;;;;;;;2051582;28;19937;-72
2023/09/09 06:32:33;;;;;;;;;;;;;;;;;;2052146;28;20729;-73
2023/09/09 06:33:54;;;;;;;;;;;;;;;;;;2059778;28;19914;-73
2023/09/09 06:35:15;;;;;;;;;;;;;;;;;;2057817;28;19913;-73
2023/09/09 06:36:35;;;;;;;;;;;;;;;;;;2056556;28;19922;-73
2023/09/09 06:37:56;;;;;;;;;;;;;;;;;;2048293;28;20350;-73
2023/09/09 06:39:17;;;;;;;;;;;;;;;;;;2053324;28;20257;-73
2023/09/09 06:40:38;;;;;;;;;;;;;;;;;;2044070;28;20041;-73
2023/09/09 06:41:58;;;;;;;;;;;;;;;;;;2051300;28;19922;-73
2023/09/09 06:43:19;;;;;;;;;;;;;;;;;;2045830;28;20558;-73
2023/09/09 06:44:40;;;;;;;;;;;;;;;;;;2044987;28;19919;-73
2023/09/09 06:46:01;;;;;;;;;;;;;;;;;;2045787;28;19922;-72
2023/09/09 06:47:21;;;;;;;;;;;;;;;;;;2044361;28;20363;-73
2023/09/09 06:48:42;;;;;;;;;;;;;;;;;;2053270;28;19918;-73
2023/09/09 06:50:03;;;;;;;;;;;;;;;;;;2049069;28;19929;-73
2023/09/09 06:51:24;;;;;;;;;;;;;;;;;;2062681;28;19918;-73
2023/09/09 06:52:44;;;;;;;;;;;;;;;;;;2059325;28;19914;-73
2023/09/09 06:54:05;;;;;;;;;;;;;;;;;;2055030;28;20370;-74
2023/09/09 06:55:26;;;;;;;;;;;;;;;;;;2053513;28;19914;-74
2023/09/09 06:56:47;;;;;;;;;;;;;;;;;;2054135;28;19915;-74
2023/09/09 06:58:07;;;;;;;;;;;;;;;;;;2061607;28;19914;-74
2023/09/09 06:59:28;;;;;;;;;;;;;;;;;;2054416;28;19921;-73
2023/09/09 07:00:49;;;;;;;;;;;;;;;;;;2059258;28;19934;-74
2023/09/09 07:02:09;;;;;;;;;;;;;;;;;;2060996;28;19918;-74
2023/09/09 07:03:30;;;;;;;;;;;;;;;;;;2065323;28;20289;-74
2023/09/09 07:04:51;;;;;;;;;;;;;;;;;;2054394;28;19918;-74
2023/09/09 07:06:12;;;;;;;;;;;;;;;;;;2055405;28;19926;-77
2023/09/09 07:07:32;;;;;;;;;;;;;;;;;;2056502;28;19918;-75
2023/09/09 07:08:53;;;;;;;;;;;;;;;;;;2052939;28;19937;-76
2023/09/09 07:10:14;;;;;;;;;;;;;;;;;;2056393;28;19917;-75
2023/09/09 07:11:34;;;;;;;;;;;;;;;;;;2056241;28;19930;-75
2023/09/09 07:12:55;;;;;;;;;;;;;;;;;;2062322;28;19926;-71
2023/09/09 07:14:16;;;;;;;;;;;;;;;;;;2063191;28;20440;-72
2023/09/09 07:15:37;;;;;;;;;;;;;;;;;;2063570;28;19917;-70
2023/09/09 07:16:58;;;;;;;;;;;;;;;;;;2061437;28;19925;-72
2023/09/09 07:18:18;;;;;;;;;;;;;;;;;;2065626;28;20281;-71
2023/09/09 07:19:39;;;;;;;;;;;;;;;;;;2055768;28;19910;-71
2023/09/09 07:21:00;;;;;;;;;;;;;;;;;;2055545;28;19918;-71
2023/09/09 07:22:20;;;;;;;;;;;;;;;;;;2061812;28;19914;-71
2023/09/09 07:23:41;;;;;;;;;;;;;;;;;;2064657;28;19940;-71
2023/09/09 07:25:02;;;;;;;;;;;;;;;;;;2053698;28;20378;-72
2023/09/09 07:26:23;;;;;;;;;;;;;;;;;;2055904;28;19910;-71
2023/09/09 07:27:43;;;;;;;;;;;;;;;;;;2063141;28;19914;-72
2023/09/09 07:29:04;;;;;;;;;;;;;;;;;;2067051;28;20299;-71
2023/09/09 07:30:25;;;;;;;;;;;;;;;;;;2063240;28;19910;-72
2023/09/09 07:31:45;;;;;;;;;;;;;;;;;;2063836;28;20365;-72
2023/09/09 07:33:06;;;;;;;;;;;;;;;;;;2056481;28;19961;-71
2023/09/09 07:34:27;;;;;;;;;;;;;;;;;;2061520;28;20433;-72
2023/09/09 07:35:52;;;;;;;;;;;;;;;;;;2070703;28;19909;-72
2023/09/09 07:37:13;;;;;;;;;;;;;;;;;;2063630;28;19922;-71
2023/09/09 07:38:33;;;;;;;;;;;;;;;;;;2056369;28;20271;-71
2023/09/09 07:39:54;;;;;;;;;;;;;;;;;;2058574;28;20298;-72
2023/09/09 07:41:15;;;;;;;;;;;;;;;;;;2062128;28;19918;-75
2023/09/09 07:42:36;;;;;;;;;;;;;;;;;;2063314;28;19913;-72
2023/09/09 07:43:56;;;;;;;;;;;;;;;;;;2062852;28;19913;-72
2023/09/09 07:45:19;;;;;;;;;;;;;;;;;;2062742;28;19913;-72
2023/09/09 07:46:40;;;;;;;;;;;;;;;;;;2059664;28;20188;-70
2023/09/09 07:48:01;;;;;;;;;;;;;;;;;;2056569;28;19922;-72
2023/09/09 07:49:22;;;;;;;;;;;;;;;;;;2062658;28;20414;-71
2023/09/09 07:50:43;;;;;;;;;;;;;;;;;;2053431;28;20347;-72
2023/09/09 07:52:03;;;;;;;;;;;;;;;;;;2062226;28;19914;-72
2023/09/09 07:53:24;;;;;;;;;;;;;;;;;;2058356;28;19910;-72
2023/09/09 07:54:45;;;;;;;;;;;;;;;;;;2055118;28;19958;-72
2023/09/09 07:56:05;;;;;;;;;;;;;;;;;;2055292;28;19910;-71
2023/09/09 07:57:26;;;;;;;;;;;;;;;;;;2060554;28;19910;-74
2023/09/09 07:58:47;;;;;;;;;;;;;;;;;;2056099;28;20314;-75
2023/09/09 08:00:08;;;;;;;;;;;;;;;;;;2064939;28;19914;-75
2023/09/09 08:01:28;;;;;;;;;;;;;;;;;;2058594;28;20286;-76
2023/09/09 08:02:49;;;;;;;;;;;;;;;;;;2063040;28;19914;-76
2023/09/09 08:04:10;;;;;;;;;;;;;;;;;;2064691;28;19913;-70
2023/09/09 08:05:30;;;;;;;;;;;;;;;;;;2064049;28;19910;-73
2023/09/09 08:06:52;;;;;;;;;;;;;;;;;;2059947;28;19918;-74
2023/09/09 08:08:13;;;;;;;;;;;;;;;;;;2070297;28;19910;-73
2023/09/09 08:09:34;;;;;;;;;;;;;;;;;;2058378;28;19919;-72
2023/09/09 08:10:55;;;;;;;;;;;;;;;;;;2057366;28;19914;-75
2023/09/09 08:12:15;;;;;;;;;;;;;;;;;;2070918;28;20296;-75
2023/09/09 08:13:36;;;;;;;;;;;;;;;;;;2072661;28;19910;-74
2023/09/09 08:14:57;;;;;;;;;;;;;;;;;;2072853;28;19909;-74
2023/09/09 08:16:17;;;;;;;;;;;;;;;;;;2071217;28;19910;-73
2023/09/09 08:17:38;;;;;;;;;;;;;;;;;;2060892;28;20322;-73
2023/09/09 08:19:00;;;;;;;;;;;;;;;;;;2062559;28;19910;-72
2023/09/09 08:20:20;;;;;;;;;;;;;;;;;;2063870;28;19937;-74
2023/09/09 08:21:41;;;;;;;;;;;;;;;;;;2063858;28;20316;-73
2023/09/09 08:23:02;;;;;;;;;;;;;;;;;;2056557;28;19922;-74
2023/09/09 08:24:23;;;;;;;;;;;;;;;;;;2056582;28;19914;-73
2023/09/09 08:25:43;;;;;;;;;;;;;;;;;;2062972;28;19921;-73
2023/09/09 08:27:04;;;;;;;;;;;;;;;;;;2060463;28;20388;-73
2023/09/09 08:28:25;;;;;;;;;;;;;;;;;;2059191;28;19910;-75
2023/09/09 08:29:46;;;;;;;;;;;;;;;;;;2071691;28;19913;-70
2023/09/09 08:31:06;;;;;;;;;;;;;;;;;;2058862;28;19914;-71
2023/09/09 08:32:27;;;;;;;;;;;;;;;;;;2054931;28;19911;-71
2023/09/09 08:33:48;;;;;;;;;;;;;;;;;;2048976;29;19910;-72
2023/09/09 08:35:08;;;;;;;;;;;;;;;;;;2047192;29;19910;-73
2023/09/09 08:36:29;;;;;;;;;;;;;;;;;;2061365;28;19936;-71
2023/09/09 08:37:50;;;;;;;;;;;;;;;;;;2066938;28;19909;-72
2023/09/09 08:39:11;;;;;;;;;;;;;;;;;;2073258;28;19958;-72
2023/09/09 08:40:35;;;;;;;;;;;;;;;;;;2063555;28;19972;-73
2023/09/09 08:41:56;;;;;;;;;;;;;;;;;;2073664;28;19925;-75
2023/09/09 08:43:17;;;;;;;;;;;;;;;;;;2066045;28;19964;-73
2023/09/09 08:44:37;;;;;;;;;;;;;;;;;;2070762;28;20361;-73
2023/09/09 08:45:58;;;;;;;;;;;;;;;;;;2073823;28;20310;-74
2023/09/09 08:47:19;;;;;;;;;;;;;;;;;;2068816;28;19909;-74
2023/09/09 08:48:39;;;;;;;;;;;;;;;;;;2068775;28;19910;-74
2023/09/09 08:50:00;;;;;;;;;;;;;;;;;;2073755;28;19909;-74
2023/09/09 08:51:21;;;;;;;;;;;;;;;;;;2065459;28;19914;-75
2023/09/09 08:52:41;;;;;;;;;;;;;;;;;;2070456;28;19913;-73
2023/09/09 08:54:02;;;;;;;;;;;;;;;;;;2081295;28;19913;-72
2023/09/09 08:55:23;;;;;;;;;;;;;;;;;;2081923;28;19920;-72
2023/09/09 08:56:44;;;;;;;;;;;;;;;;;;2075372;28;19910;-72
2023/09/09 08:58:05;;;;;;;;;;;;;;;;;;2071174;28;19968;-73
2023/09/09 08:59:26;;;;;;;;;;;;;;;;;;2066317;28;19972;-73
2023/09/09 09:00:46;;;;;;;;;;;;;;;;;;2072765;28;19913;-73
2023/09/09 09:02:07;;;;;;;;;;;;;;;;;;2066419;28;19917;-73
2023/09/09 09:03:28;;;;;;;;;;;;;;;;;;2065838;28;20282;-74
2023/09/09 09:04:49;;;;;;;;;;;;;;;;;;2070112;28;19910;-72
2023/09/09 09:06:09;;;;;;;;;;;;;;;;;;2067399;28;19910;-73
2023/09/09 09:07:32;;;;;;;;;;;;;;;;;;2075583;28;19914;-72
2023/09/09 09:08:52;;;;;;;;;;;;;;;;;;2076444;28;19909;-73
2023/09/09 09:10:13;;;;;;;;;;;;;;;;;;2072313;28;20247;-73
2023/09/09 09:11:34;;;;;;;;;;;;;;;;;;2065584;28;19918;-74